createdAt,value
2019-05-07T00:01:23.055Z,6.90
2019-05-07T00:03:52.865Z,7.00
2019-05-07T00:06:23.048Z,7.10
2019-05-07T00:08:52.570Z,7.10
2019-05-07T00:11:22.407Z,7.20
2019-05-07T00:13:52.334Z,7.20
2019-05-07T00:16:22.382Z,7.20
2019-05-07T00:18:52.554Z,7.20
2019-05-07T00:21:23.276Z,7.20
2019-05-07T00:23:52.925Z,7.10
2019-05-07T00:26:22.652Z,7.20
2019-05-07T00:28:52.714Z,7.10
2019-05-07T00:31:23.283Z,7.00
2019-05-07T00:33:52.764Z,7.00
2019-05-07T00:36:56.283Z,7.00
2019-05-07T00:39:34.037Z,7.00
2019-05-07T00:42:22.410Z,7.00
2019-05-07T00:45:17.035Z,7.00
2019-05-07T00:47:35.740Z,6.90
2019-05-07T00:50:10.037Z,6.90
2019-05-07T00:52:39.417Z,6.80
2019-05-07T00:55:08.902Z,6.80
2019-05-07T00:57:38.308Z,6.80
2019-05-07T01:00:07.932Z,6.80
2019-05-07T01:02:37.211Z,6.80
2019-05-07T01:05:06.666Z,6.80
2019-05-07T01:07:35.987Z,6.70
2019-05-07T01:10:06.291Z,6.70
2019-05-07T01:12:35.567Z,6.70
2019-05-07T01:15:05.320Z,6.90
2019-05-07T01:17:34.727Z,6.90
2019-05-07T01:20:04.206Z,6.90
2019-05-07T01:22:33.541Z,7.00
2019-05-07T01:25:03.617Z,7.00
2019-05-07T01:27:32.875Z,7.00
2019-05-07T01:30:02.701Z,7.00
2019-05-07T01:32:42.534Z,6.90
2019-05-07T01:35:25.815Z,6.90
2019-05-07T01:37:55.151Z,6.90
2019-05-07T01:40:24.406Z,6.90
2019-05-07T01:42:53.728Z,6.90
2019-05-07T01:45:24.865Z,6.80
2019-05-07T01:47:54.094Z,6.90
2019-05-07T01:50:23.454Z,6.80
2019-05-07T01:52:52.779Z,6.80
2019-05-07T01:55:22.681Z,6.80
2019-05-07T01:57:52.385Z,6.80
2019-05-07T02:00:22.509Z,6.70
2019-05-07T02:02:57.306Z,6.70
2019-05-07T02:05:33.181Z,6.70
2019-05-07T02:08:05.099Z,6.70
2019-05-07T02:10:57.839Z,6.70
2019-05-07T02:13:27.108Z,6.70
2019-05-07T02:16:01.027Z,6.70
2019-05-07T02:18:27.399Z,6.70
2019-05-07T02:20:56.743Z,6.60
2019-05-07T02:23:26.105Z,6.60
2019-05-07T02:25:55.511Z,6.60
2019-05-07T02:28:24.869Z,6.60
2019-05-07T02:30:54.172Z,6.50
2019-05-07T02:33:23.417Z,6.50
2019-05-07T02:35:53.498Z,6.60
2019-05-07T02:38:35.427Z,6.70
2019-05-07T02:41:09.920Z,6.70
2019-05-07T02:43:39.270Z,6.80
2019-05-07T02:46:31.526Z,6.60
2019-05-07T02:49:09.330Z,6.60
2019-05-07T02:51:54.679Z,6.60
2019-05-07T02:54:29.137Z,6.70
2019-05-07T02:56:58.564Z,6.70
2019-05-07T02:59:27.891Z,6.70
2019-05-07T03:01:57.407Z,6.60
2019-05-07T03:04:26.732Z,6.60
2019-05-07T03:06:56.202Z,6.50
2019-05-07T03:09:25.532Z,6.40
2019-05-07T03:11:54.873Z,6.50
2019-05-07T03:14:24.287Z,6.50
2019-05-07T03:16:54.024Z,6.50
2019-05-07T03:19:24.435Z,6.60
2019-05-07T03:21:55.055Z,6.60
2019-05-07T03:24:43.682Z,6.60
2019-05-07T03:27:14.338Z,6.70
2019-05-07T03:29:48.060Z,6.70
2019-05-07T03:32:38.033Z,6.60
2019-05-07T03:35:17.205Z,6.50
2019-05-07T03:37:46.673Z,6.50
2019-05-07T03:40:16.025Z,6.50
2019-05-07T03:42:45.300Z,6.60
2019-05-07T03:45:36.977Z,6.50
2019-05-07T03:48:13.618Z,6.50
2019-05-07T03:50:43.591Z,6.50
2019-05-07T03:53:14.220Z,6.60
2019-05-07T03:55:44.883Z,6.60
2019-05-07T03:58:14.869Z,6.50
2019-05-07T04:00:45.071Z,6.40
2019-05-07T04:03:19.041Z,6.40
2019-05-07T04:05:45.497Z,6.50
2019-05-07T04:08:14.892Z,6.40
2019-05-07T04:10:44.651Z,6.40
2019-05-07T04:13:14.175Z,6.30
2019-05-07T04:15:44.172Z,6.30
2019-05-07T04:18:14.090Z,6.30
2019-05-07T04:20:43.930Z,6.30
2019-05-07T04:23:14.019Z,6.30
2019-05-07T04:26:13.425Z,6.30
2019-05-07T04:29:06.055Z,6.30
2019-05-07T04:31:42.942Z,6.30
2019-05-07T04:34:16.228Z,6.30
2019-05-07T04:36:47.866Z,6.30
2019-05-07T04:39:17.341Z,6.40
2019-05-07T04:41:46.681Z,6.40
2019-05-07T04:44:16.102Z,6.40
2019-05-07T04:46:48.104Z,6.40
2019-05-07T04:49:16.357Z,6.50
2019-05-07T04:51:57.747Z,6.50
2019-05-07T04:54:27.018Z,6.50
2019-05-07T04:56:56.296Z,6.60
2019-05-07T04:59:25.630Z,6.70
2019-05-07T05:02:03.857Z,6.70
2019-05-07T05:04:34.771Z,6.70
2019-05-07T05:07:03.363Z,6.70
2019-05-07T05:09:33.102Z,6.70
2019-05-07T05:12:02.893Z,6.80
2019-05-07T05:14:33.833Z,6.80
2019-05-07T05:17:03.621Z,6.80
2019-05-07T05:19:32.963Z,6.80
2019-05-07T05:22:16.271Z,6.90
2019-05-07T05:24:47.615Z,7.10
2019-05-07T05:27:16.813Z,7.10
2019-05-07T05:29:46.160Z,7.10
2019-05-07T05:32:15.491Z,7.20
2019-05-07T05:34:44.743Z,7.10
2019-05-07T05:37:14.043Z,7.10
2019-05-07T05:39:43.310Z,7.10
2019-05-07T05:42:26.343Z,7.10
2019-05-07T05:44:55.675Z,7.10
2019-05-07T05:47:25.008Z,7.10
2019-05-07T05:49:54.256Z,7.10
2019-05-07T05:52:42.489Z,7.10
2019-05-07T05:55:17.781Z,7.00
2019-05-07T05:58:06.006Z,7.10
2019-05-07T06:00:52.869Z,7.10
2019-05-07T06:03:35.188Z,7.10
2019-05-07T06:06:26.621Z,7.10
2019-05-07T06:09:13.466Z,7.30
2019-05-07T06:12:17.208Z,7.40
2019-05-07T06:14:50.245Z,7.60
2019-05-07T06:17:53.615Z,7.60
2019-05-07T06:20:32.068Z,7.70
2019-05-07T06:23:33.163Z,7.60
2019-05-07T06:26:05.169Z,7.70
2019-05-07T06:28:33.471Z,7.90
2019-05-07T06:31:02.715Z,7.90
2019-05-07T06:33:32.486Z,8.00
2019-05-07T06:36:02.815Z,7.90
2019-05-07T06:38:37.211Z,8.10
2019-05-07T06:41:41.852Z,8.20
2019-05-07T06:44:22.854Z,8.20
2019-05-07T06:46:52.612Z,8.30
2019-05-07T06:49:22.410Z,8.30
2019-05-07T06:51:52.876Z,8.40
2019-05-07T06:54:22.678Z,8.50
2019-05-07T06:56:52.515Z,8.60
2019-05-07T06:59:42.892Z,8.50
2019-05-07T07:02:43.051Z,8.70
2019-05-07T07:05:32.847Z,9.00
2019-05-07T07:08:06.086Z,9.20
2019-05-07T07:11:02.631Z,9.30
2019-05-07T07:13:32.268Z,9.10
2019-05-07T07:16:02.049Z,8.90
2019-05-07T07:18:32.340Z,9.10
2019-05-07T07:21:02.453Z,9.10
2019-05-07T07:23:32.533Z,9.20
2019-05-07T07:26:03.116Z,9.40
2019-05-07T07:28:32.957Z,9.40
2019-05-07T07:31:27.482Z,9.40
2019-05-07T07:33:58.075Z,9.60
2019-05-07T07:36:29.320Z,9.70
2019-05-07T07:38:58.579Z,9.70
2019-05-07T07:41:47.052Z,9.60
2019-05-07T07:44:16.327Z,9.60
2019-05-07T07:46:45.581Z,9.50
2019-05-07T07:49:15.333Z,9.50
2019-05-07T07:51:45.865Z,9.50
2019-05-07T07:54:15.285Z,9.70
2019-05-07T07:56:56.602Z,9.80
2019-05-07T08:00:02.589Z,9.80
2019-05-07T08:02:38.342Z,9.90
2019-05-07T08:05:09.294Z,9.80
2019-05-07T08:07:38.598Z,9.70
2019-05-07T08:10:08.872Z,9.70
2019-05-07T08:12:38.208Z,10.00
2019-05-07T08:15:17.347Z,10.00
2019-05-07T08:17:39.152Z,10.10
2019-05-07T08:20:08.960Z,10.10
2019-05-07T08:22:38.285Z,10.10
2019-05-07T08:25:07.815Z,10.10
2019-05-07T08:27:37.254Z,10.20
2019-05-07T08:30:08.383Z,10.20
2019-05-07T08:32:54.509Z,10.50
2019-05-07T08:35:45.687Z,10.80
2019-05-07T08:38:14.898Z,11.00
2019-05-07T08:40:44.244Z,11.10
2019-05-07T08:43:13.542Z,11.10
2019-05-07T08:46:11.995Z,10.60
2019-05-07T08:48:45.203Z,10.40
2019-05-07T08:51:14.495Z,10.20
2019-05-07T08:53:43.756Z,10.00
2019-05-07T08:56:13.107Z,10.00
2019-05-07T08:58:42.345Z,9.90
2019-05-07T09:01:11.966Z,10.00
2019-05-07T09:03:44.466Z,10.00
2019-05-07T09:06:15.288Z,10.00
2019-05-07T09:08:44.535Z,9.90
2019-05-07T09:11:13.839Z,9.90
2019-05-07T09:13:43.150Z,9.80
2019-05-07T09:16:13.039Z,9.80
2019-05-07T09:18:42.590Z,10.10
2019-05-07T09:21:12.573Z,10.20
2019-05-07T09:23:42.490Z,10.30
2019-05-07T09:26:13.922Z,10.30
2019-05-07T09:29:11.914Z,10.20
2019-05-07T09:32:00.120Z,10.20
2019-05-07T09:34:32.674Z,10.00
2019-05-07T09:37:03.739Z,10.10
2019-05-07T09:39:33.031Z,10.20
2019-05-07T09:42:03.848Z,10.40
2019-05-07T09:44:33.119Z,10.60
2019-05-07T09:47:02.723Z,10.80
2019-05-07T09:49:32.690Z,10.70
2019-05-07T09:52:02.647Z,10.40
2019-05-07T09:54:33.061Z,10.20
2019-05-07T09:57:02.340Z,10.10
2019-05-07T09:59:32.473Z,10.10
2019-05-07T10:02:01.960Z,10.10
2019-05-07T10:04:32.694Z,10.30
2019-05-07T10:07:02.676Z,10.30
2019-05-07T10:09:32.860Z,10.30
2019-05-07T10:12:16.142Z,10.50
2019-05-07T10:14:45.459Z,10.80
2019-05-07T10:17:22.390Z,10.60
2019-05-07T10:19:52.280Z,10.80
2019-05-07T10:22:22.784Z,11.00
2019-05-07T10:24:52.316Z,11.10
2019-05-07T10:27:22.375Z,10.90
2019-05-07T10:29:53.000Z,10.90
2019-05-07T10:32:22.351Z,10.90
2019-05-07T10:34:52.533Z,11.00
2019-05-07T10:37:21.955Z,10.90
2019-05-07T10:39:52.003Z,11.00
2019-05-07T10:42:22.696Z,11.30
2019-05-07T10:45:13.051Z,11.60
2019-05-07T10:47:49.524Z,11.90
2019-05-07T10:50:35.463Z,11.80
2019-05-07T10:52:55.037Z,11.70
2019-05-07T10:55:24.334Z,11.70
2019-05-07T10:57:53.608Z,11.70
2019-05-07T11:00:25.881Z,11.70
2019-05-07T11:02:56.766Z,11.80
2019-05-07T11:05:26.147Z,12.00
2019-05-07T11:07:55.423Z,11.90
2019-05-07T11:10:24.702Z,11.90
2019-05-07T11:12:54.003Z,11.70
2019-05-07T11:15:23.348Z,11.20
2019-05-07T11:18:15.883Z,11.20
2019-05-07T11:20:50.137Z,11.30
2019-05-07T11:23:16.136Z,11.40
2019-05-07T11:25:45.404Z,11.50
2019-05-07T11:28:14.633Z,11.20
2019-05-07T11:30:44.770Z,11.20
2019-05-07T11:33:14.006Z,11.10
2019-05-07T11:35:43.263Z,11.20
2019-05-07T11:38:20.573Z,11.30
2019-05-07T11:40:43.531Z,11.60
2019-05-07T11:43:25.915Z,11.80
2019-05-07T11:46:22.089Z,11.80
2019-05-07T11:49:05.935Z,11.70
2019-05-07T11:51:54.127Z,11.40
2019-05-07T11:54:23.389Z,11.40
2019-05-07T11:56:55.385Z,11.40
2019-05-07T11:59:23.615Z,11.50
2019-05-07T12:01:58.007Z,11.20
2019-05-07T12:04:27.943Z,11.30
2019-05-07T12:06:57.578Z,11.20
2019-05-07T12:09:26.842Z,11.10
2019-05-07T12:11:56.176Z,11.20
2019-05-07T12:14:30.966Z,11.40
2019-05-07T12:16:56.495Z,11.50
2019-05-07T12:19:25.764Z,11.70
2019-05-07T12:21:55.000Z,11.80
2019-05-07T12:24:24.261Z,11.90
2019-05-07T12:26:53.807Z,11.80
2019-05-07T12:29:23.126Z,11.70
2019-05-07T12:32:14.486Z,11.80
2019-05-07T12:34:47.931Z,11.80
2019-05-07T12:37:17.269Z,11.60
2019-05-07T12:39:46.633Z,11.60
2019-05-07T12:42:15.939Z,11.50
2019-05-07T12:44:45.279Z,11.50
2019-05-07T12:47:14.628Z,11.60
2019-05-07T12:49:43.938Z,11.90
2019-05-07T12:52:32.018Z,12.30
2019-05-07T12:55:13.856Z,12.50
2019-05-07T12:57:43.092Z,12.60
2019-05-07T13:00:32.318Z,12.50
2019-05-07T13:03:29.703Z,12.90
2019-05-07T13:05:59.180Z,13.90
2019-05-07T13:08:28.497Z,14.60
2019-05-07T13:10:57.811Z,14.60
2019-05-07T13:13:27.039Z,14.30
2019-05-07T13:15:56.307Z,14.00
2019-05-07T13:18:25.542Z,13.40
2019-05-07T13:20:54.825Z,12.90
2019-05-07T13:23:24.074Z,12.90
2019-05-07T13:25:53.551Z,13.10
2019-05-07T13:28:22.809Z,13.10
2019-05-07T13:30:52.641Z,12.90
2019-05-07T13:33:22.896Z,12.90
2019-05-07T13:35:52.947Z,12.80
2019-05-07T13:38:33.924Z,12.80
2019-05-07T13:41:12.589Z,13.00
2019-05-07T13:43:59.379Z,13.20
2019-05-07T13:46:29.289Z,13.60
2019-05-07T13:48:58.531Z,13.60
2019-05-07T13:51:30.717Z,13.60
2019-05-07T13:53:59.182Z,13.80
2019-05-07T13:56:28.783Z,13.80
2019-05-07T13:58:58.016Z,13.60
2019-05-07T14:01:33.917Z,13.30
2019-05-07T14:04:04.157Z,13.20
2019-05-07T14:06:39.767Z,13.20
2019-05-07T14:09:24.303Z,13.60
2019-05-07T14:11:53.420Z,13.90
2019-05-07T14:14:22.826Z,14.20
2019-05-07T14:16:53.042Z,14.20
2019-05-07T14:19:22.742Z,14.00
2019-05-07T14:21:52.553Z,13.70
2019-05-07T14:24:22.578Z,13.40
2019-05-07T14:26:52.830Z,13.50
2019-05-07T14:29:24.703Z,13.40
2019-05-07T14:32:15.503Z,13.40
2019-05-07T14:35:16.118Z,13.50
2019-05-07T14:37:49.023Z,13.20
2019-05-07T14:40:18.434Z,12.90
2019-05-07T14:42:52.602Z,13.00
2019-05-07T14:45:23.817Z,13.10
2019-05-07T14:47:53.115Z,13.10
2019-05-07T14:50:22.727Z,13.20
2019-05-07T14:52:55.083Z,13.40
2019-05-07T14:55:23.095Z,13.50
2019-05-07T14:57:52.537Z,13.20
2019-05-07T15:00:22.574Z,13.10
2019-05-07T15:02:52.502Z,13.20
2019-05-07T15:05:22.454Z,13.30
2019-05-07T15:07:51.971Z,13.60
2019-05-07T15:10:22.229Z,13.50
2019-05-07T15:12:52.158Z,13.70
2019-05-07T15:15:22.066Z,13.80
2019-05-07T15:17:56.926Z,13.90
2019-05-07T15:20:26.250Z,13.80
2019-05-07T15:23:02.706Z,13.60
2019-05-07T15:25:32.532Z,13.40
2019-05-07T15:28:01.970Z,13.20
2019-05-07T15:30:41.741Z,13.10
2019-05-07T15:33:12.722Z,13.20
2019-05-07T15:35:42.544Z,13.10
2019-05-07T15:38:11.824Z,13.20
2019-05-07T15:40:42.287Z,13.30
2019-05-07T15:43:12.908Z,13.10
2019-05-07T15:45:42.431Z,13.00
2019-05-07T15:48:12.664Z,13.10
2019-05-07T15:50:42.935Z,13.10
2019-05-07T15:53:34.368Z,13.40
2019-05-07T15:56:03.787Z,13.50
2019-05-07T15:58:33.023Z,13.30
2019-05-07T16:01:02.309Z,13.30
2019-05-07T16:03:35.829Z,13.20
2019-05-07T16:06:05.299Z,13.00
2019-05-07T16:08:38.824Z,12.90
2019-05-07T16:11:08.146Z,12.90
2019-05-07T16:13:41.987Z,12.90
2019-05-07T16:16:10.975Z,12.90
2019-05-07T16:18:59.238Z,12.80
2019-05-07T16:21:28.499Z,12.80
2019-05-07T16:23:57.755Z,12.80
2019-05-07T16:26:27.042Z,12.90
2019-05-07T16:28:56.360Z,12.90
2019-05-07T16:31:25.628Z,12.80
2019-05-07T16:33:54.975Z,12.80
2019-05-07T16:36:24.433Z,12.90
2019-05-07T16:38:53.682Z,12.90
2019-05-07T16:41:22.948Z,13.00
2019-05-07T16:43:52.495Z,13.10
2019-05-07T16:46:22.410Z,13.10
2019-05-07T16:49:36.431Z,13.10
2019-05-07T16:56:04.893Z,13.10
2019-05-07T16:59:12.526Z,13.10
2019-05-07T17:06:04.834Z,13.00
2019-05-07T17:09:35.234Z,13.00
2019-05-07T17:12:34.761Z,13.10
2019-05-07T17:15:52.290Z,13.10
2019-05-07T17:23:08.890Z,13.10
2019-05-07T17:26:52.472Z,13.00
2019-05-07T17:30:32.294Z,13.00
2019-05-07T17:44:55.499Z,12.90
2019-05-07T17:47:58.216Z,12.80
2019-05-07T17:55:18.102Z,12.80
2019-05-07T17:58:27.197Z,12.70
2019-05-07T18:01:50.199Z,12.70
2019-05-07T18:04:47.653Z,12.60
2019-05-07T18:08:12.601Z,12.60
2019-05-07T18:11:42.716Z,12.50
2019-05-07T18:14:33.563Z,12.40
2019-05-07T18:18:03.018Z,12.30
2019-05-07T18:27:37.322Z,11.90
2019-05-07T18:33:55.123Z,11.70
2019-05-07T18:36:24.436Z,11.60
2019-05-07T18:38:53.718Z,11.50
2019-05-07T18:41:22.970Z,11.50
2019-05-07T18:43:54.614Z,11.40
2019-05-07T18:46:23.272Z,11.30
2019-05-07T18:48:52.534Z,11.20
2019-05-07T18:51:21.767Z,11.10
2019-05-07T18:53:51.919Z,11.10
2019-05-07T18:56:22.166Z,11.00
2019-05-07T18:58:52.152Z,10.80
2019-05-07T19:01:22.803Z,10.80
2019-05-07T19:03:52.652Z,10.70
2019-05-07T19:06:22.292Z,10.60
2019-05-07T19:08:52.648Z,10.60
2019-05-07T19:11:22.855Z,10.50
2019-05-07T19:13:53.494Z,10.50
2019-05-07T19:16:23.426Z,10.40
2019-05-07T19:18:52.684Z,10.40
2019-05-07T19:21:22.365Z,10.30
2019-05-07T19:23:52.930Z,10.30
2019-05-07T19:26:22.566Z,10.30
2019-05-07T19:28:51.881Z,10.20
2019-05-07T19:31:22.040Z,10.20
2019-05-07T19:33:54.420Z,10.10
2019-05-07T19:36:23.720Z,10.10
2019-05-07T19:38:52.985Z,10.10
2019-05-07T19:41:22.479Z,10.10
2019-05-07T19:43:52.778Z,10.10
2019-05-07T19:46:22.895Z,10.10
2019-05-07T19:48:52.242Z,10.10
2019-05-07T19:51:21.560Z,10.10
2019-05-07T19:53:52.582Z,10.10
2019-05-07T19:56:24.018Z,10.10
2019-05-07T19:58:53.540Z,10.10
2019-05-07T20:01:27.635Z,10.00
2019-05-07T20:03:56.919Z,10.00
2019-05-07T20:06:28.957Z,10.00
2019-05-07T20:09:11.664Z,10.00
2019-05-07T20:11:42.515Z,10.00
2019-05-07T20:14:11.887Z,10.00
2019-05-07T20:16:44.056Z,10.00
2019-05-07T20:19:13.738Z,10.00
2019-05-07T20:21:43.655Z,10.00
2019-05-07T20:24:12.930Z,10.00
2019-05-07T20:26:43.171Z,9.90
2019-05-07T20:29:12.739Z,9.80
2019-05-07T20:31:42.432Z,9.80
2019-05-07T20:34:13.037Z,9.80
2019-05-07T20:36:42.923Z,9.80
2019-05-07T20:39:15.447Z,9.80
2019-05-07T20:41:44.804Z,9.80
2019-05-07T20:44:14.038Z,9.70
2019-05-07T20:46:43.418Z,9.60
2019-05-07T20:49:13.268Z,9.60
2019-05-07T20:51:42.808Z,9.60
2019-05-07T20:54:32.455Z,9.50
2019-05-07T20:57:14.391Z,9.50
2019-05-07T20:59:43.782Z,9.40
2019-05-07T21:02:13.123Z,9.40
2019-05-07T21:04:42.583Z,9.50
2019-05-07T21:07:12.275Z,9.60
2019-05-07T21:09:42.751Z,9.60
2019-05-07T21:12:12.830Z,9.60
2019-05-07T21:14:42.292Z,9.50
2019-05-07T21:17:12.094Z,9.40
2019-05-07T21:19:42.771Z,9.40
2019-05-07T21:22:13.021Z,9.30
2019-05-07T21:24:42.435Z,9.20
2019-05-07T21:27:12.320Z,9.20
2019-05-07T21:29:42.346Z,9.30
2019-05-07T21:32:12.527Z,9.10
2019-05-07T21:34:44.872Z,9.10
2019-05-07T21:37:14.172Z,9.10
2019-05-07T21:39:43.384Z,9.10
2019-05-07T21:42:14.290Z,9.00
2019-05-07T21:44:43.570Z,9.00
2019-05-07T21:47:12.885Z,9.10
2019-05-07T21:49:43.004Z,9.00
2019-05-07T21:52:12.792Z,9.00
2019-05-07T21:54:57.431Z,9.00
2019-05-07T21:57:46.157Z,9.10
2019-05-07T22:00:32.356Z,9.10
2019-05-07T22:03:03.014Z,9.00
2019-05-07T22:05:32.284Z,9.00
2019-05-07T22:08:01.827Z,9.00
2019-05-07T22:10:32.967Z,9.00
2019-05-07T22:13:03.245Z,9.00
2019-05-07T22:15:32.653Z,9.00
2019-05-07T22:18:02.727Z,9.00
2019-05-07T22:20:32.238Z,9.00
2019-05-07T22:23:02.814Z,9.00
2019-05-07T22:25:32.819Z,9.00
2019-05-07T22:28:04.693Z,9.10
2019-05-07T22:30:44.455Z,9.00
2019-05-07T22:33:22.255Z,9.00
2019-05-07T22:35:52.258Z,9.00
2019-05-07T22:38:22.820Z,9.00
2019-05-07T22:40:52.155Z,9.00
2019-05-07T22:43:22.624Z,9.00
2019-05-07T22:45:51.995Z,9.00
2019-05-07T22:48:22.944Z,9.10
2019-05-07T22:50:52.244Z,9.00
2019-05-07T22:53:22.109Z,9.00
2019-05-07T22:55:52.492Z,8.90
2019-05-07T22:58:27.839Z,9.00
2019-05-07T23:01:02.505Z,9.00
2019-05-07T23:03:32.351Z,8.90
2019-05-07T23:06:07.858Z,8.90
2019-05-07T23:08:38.770Z,8.90
2019-05-07T23:11:08.962Z,8.90
2019-05-07T23:13:38.337Z,8.90
2019-05-07T23:16:08.415Z,8.90
2019-05-07T23:18:37.737Z,8.80
2019-05-07T23:21:06.902Z,8.80
2019-05-07T23:23:36.159Z,8.90
2019-05-07T23:26:05.511Z,8.70
2019-05-07T23:28:34.735Z,8.80
2019-05-07T23:31:03.994Z,8.80
2019-05-07T23:33:33.176Z,8.80
2019-05-07T23:36:02.432Z,8.80
2019-05-07T23:38:32.034Z,8.80
2019-05-07T23:41:14.784Z,8.80
2019-05-07T23:44:03.015Z,8.80
2019-05-07T23:46:32.291Z,8.80
2019-05-07T23:49:02.885Z,8.80
2019-05-07T23:51:32.269Z,8.70
2019-05-07T23:54:02.827Z,8.70
2019-05-07T23:56:32.950Z,8.70
2019-05-07T23:59:02.309Z,8.70
